Accueil
METAR-TAF:

METAR-TAF

Aéroports :

Bauru, São Paulo, Brésil

latitude: 22-19S, longitude: 049-04W, altitude: 590 m

Observation

Le bulletin a été fait il y a 45 minutes, à 21:00 UTC
Vent 5 kt de sud-est
Température 32°C
Humidité 43%
Pression 1012 hPa
Visibilité 10 km ou plus
Quelques nuages à une hauteur de 4000 ft

METAR: SBBU 252100Z 13005KT 9999 FEW040 32/18 Q1012

Heure: 18:45 (21:45 UTC)

Prévision

Le bulletin a été fait il y a 6 heures et 45 minutes, à 15:00 UTC
Prévision valable du 25 à 18 UTC au 26 à 06 UTC
Vent 10 kt de est/sud-est
Visibilité 10 km ou plus
pas de nuages en-dessous de 1500 mètres et pas de cumulonimbus.
Temporairement
du 25 à 18 UTC au 25 à 20 UTC
Vent 7 kt de ouest/sud-ouest
Visibilité 10 km ou plus
Nuages épars à une hauteur de 3500 ft

TAF: SBBU 251500Z 2518/2606 11010KT CAVOK TX33/2518Z TN24/2606Z TEMPO 2518/2520 25007KT 9999 SCT035 RMK PDJ

Observations et prévisions météorologiques de plus de 4000 aéroports (messages METAR et TAF).

Les stations disponibles sont représentées par des disques jaunes et rouges sur la carte.

Passer la souris dessus pour voir le nom de la station.

Cliquer dessus pour voir les observations et prévisions météorologiques.

Pour changer de carte: cliquez sur les boutons verts avec une croix noire pour zoomer, sur le bouton vert avec un tiret pour effectuer un zoom arrière, ou sur les flèches vertes pour les cartes adjacentes.


METAR-TAF: